Time;durP1;ratioP1;P1;durP2;ratioP2;P2;SDS_P1;SDS_P2;PMS_P1;PMS_P2;Temp;Humidity;BMP_temperature;BMP_pressure;BME280_temperature;BME280_humidity;BME280_pressure;Samples;Min_cycle;Max_cycle;Signal;HPM_P1;HPM_P2
2021/11/17 02:25:51;;;;;;;8.48;3.90;;;;;;;9.73;62.07;100369.50;5051709;28;20040;-75
2021/11/17 02:28:19;;;;;;;7.50;4.15;;;;;;;9.76;62.52;100371.84;5033704;28;20025;-76
2021/11/17 02:31:04;;;;;;;5.00;3.47;;;;;;;9.78;62.35;100372.50;5051593;28;20036;-75
2021/11/17 02:36:54;;;;;;;6.65;3.80;;;;;;;9.75;62.20;100368.38;5068423;28;20845;-75
2021/11/17 02:39:19;;;;;;;6.35;3.40;;;;;;;9.76;62.27;100363.91;5050656;28;20041;-76
2021/11/17 02:41:45;;;;;;;8.60;4.30;;;;;;;9.77;62.07;100373.50;5068703;28;20079;-75
2021/11/17 02:44:10;;;;;;;6.32;3.85;;;;;;;9.76;62.12;100367.38;5067064;28;20028;-75
2021/11/17 02:47:01;;;;;;;5.60;3.45;;;;;;;9.77;62.01;100378.75;5068341;28;20056;-75
2021/11/17 02:49:36;;;;;;;6.80;3.70;;;;;;;9.77;62.19;100379.59;5068446;28;20029;-75
2021/11/17 02:52:22;;;;;;;6.80;3.47;;;;;;;9.77;61.99;100382.22;5068297;28;20017;-75
2021/11/17 02:54:50;;;;;;;8.10;3.25;;;;;;;9.76;62.06;100377.09;5068209;28;20580;-76
2021/11/17 02:57:34;;;;;;;7.80;3.95;;;;;;;9.76;61.85;100377.09;5067143;28;20071;-75
2021/11/17 03:00:35;;;;;;;7.10;3.70;;;;;;;9.77;62.24;100381.41;5066848;28;20103;-75
2021/11/17 03:03:03;;;;;;;6.07;3.55;;;;;;;9.75;62.27;100383.38;5055994;28;20044;-75
2021/11/17 03:06:10;;;;;;;7.50;4.82;;;;;;;9.74;62.20;100374.63;5066824;28;20527;-75
2021/11/17 03:09:00;;;;;;;8.90;4.50;;;;;;;9.74;62.46;100379.91;5066631;28;20056;-75
2021/11/17 03:11:41;;;;;;;5.90;4.07;;;;;;;9.75;62.51;100378.09;5066513;28;20036;-75
2021/11/17 03:14:18;;;;;;;11.57;5.28;;;;;;;9.75;62.32;100388.63;5067768;28;20045;-75
2021/11/17 03:17:15;;;;;;;12.02;5.10;;;;;;;9.75;62.28;100375.44;5067749;28;20044;-75
2021/11/17 03:20:15;;;;;;;8.48;4.90;;;;;;;9.73;62.15;100370.31;5067326;28;20040;-76
2021/11/17 03:23:20;;;;;;;12.00;5.03;;;;;;;9.71;62.35;100363.56;5067893;28;20033;-75
2021/11/17 03:25:54;;;;;;;7.55;4.15;;;;;;;9.70;62.49;100362.72;5067175;28;20520;-75
2021/11/17 03:29:00;;;;;;;7.88;4.10;;;;;;;9.74;62.46;100360.59;5067483;28;20028;-76
2021/11/17 03:31:39;;;;;;;7.30;4.35;;;;;;;9.35;62.49;100302.91;5067295;28;20024;-75
2021/11/17 03:34:42;;;;;;;6.20;3.75;;;;;;;9.72;62.27;100359.94;5066360;28;20039;-75
2021/11/17 03:37:43;;;;;;;6.80;3.67;;;;;;;9.73;62.22;100354.50;5067537;28;20059;-75
2021/11/17 03:40:46;;;;;;;10.90;4.57;;;;;;;9.72;62.39;100352.03;5066222;28;20420;-75
2021/11/17 03:43:42;;;;;;;8.18;4.22;;;;;;;9.72;62.43;100354.66;5067317;28;20056;-75
2021/11/17 03:46:16;;;;;;;7.10;4.10;;;;;;;9.74;62.54;100352.69;5063640;28;20091;-75
2021/11/17 03:48:48;;;;;;;9.40;4.40;;;;;;;9.76;62.58;100364.75;5054042;28;20032;-75
2021/11/17 03:51:29;;;;;;;6.90;4.10;;;;;;;9.54;62.37;100325.66;5054045;28;20032;-75
2021/11/17 03:54:00;;;;;;;7.43;4.30;;;;;;;9.75;62.37;100362.25;5054030;28;20029;-75
2021/11/17 03:56:41;;;;;;;8.02;4.93;;;;;;;9.75;62.28;100359.63;5053943;28;20024;-75
2021/11/17 03:59:18;;;;;;;7.60;4.45;;;;;;;9.74;62.38;100360.59;5053761;28;20571;-75
2021/11/17 04:01:56;;;;;;;5.88;4.65;;;;;;;9.73;62.53;100359.78;5053691;28;20031;-75
2021/11/17 04:04:21;;;;;;;8.50;4.53;;;;;;;9.74;62.86;100352.69;5053582;28;20083;-75
2021/11/17 04:07:28;;;;;;;7.38;4.20;;;;;;;9.72;62.46;100350.22;5053436;28;20025;-75
2021/11/17 04:10:38;;;;;;;8.35;4.70;;;;;;;9.70;62.35;100362.72;5040907;28;20124;-75
2021/11/17 04:13:21;;;;;;;8.00;4.55;;;;;;;9.72;62.44;100375.75;5053461;28;20056;-75
2021/11/17 04:15:53;;;;;;;8.77;4.75;;;;;;;9.60;62.60;100350.56;5053541;28;20025;-75
2021/11/17 04:18:49;;;;;;;10.60;4.05;;;;;;;9.72;62.40;100371.31;5052481;28;20106;-75
2021/11/17 04:21:26;;;;;;;10.52;4.20;;;;;;;9.76;62.36;100377.09;5052306;28;20102;-75
2021/11/17 04:24:04;;;;;;;6.38;3.85;;;;;;;9.76;62.42;100374.47;5053367;28;20031;-75
2021/11/17 04:26:44;;;;;;;9.52;5.43;;;;;;;9.77;62.32;100376.13;5052201;28;20025;-75
2021/11/17 04:29:51;;;;;;;10.35;4.50;;;;;;;9.72;62.29;100375.75;5053327;28;20036;-75
2021/11/17 04:32:23;;;;;;;7.03;4.30;;;;;;;9.57;62.25;100352.53;5053238;28;20050;-75
2021/11/17 04:35:01;;;;;;;7.43;3.67;;;;;;;9.77;62.17;100390.13;5035141;28;20041;-75
2021/11/17 04:37:45;;;;;;;6.55;3.78;;;;;;;9.72;61.81;100376.59;5053315;28;20029;-75
2021/11/17 04:40:34;;;;;;;9.43;3.75;;;;;;;9.77;62.18;100381.41;5051954;28;20035;-75
2021/11/17 04:43:13;;;;;;;6.68;4.35;;;;;;;9.76;62.26;100377.94;5053084;28;20031;-75
2021/11/17 04:45:57;;;;;;;9.45;4.45;;;;;;;9.76;62.15;100380.56;5053246;28;20021;-75
2021/11/17 04:48:41;;;;;;;8.75;4.05;;;;;;;9.24;62.02;100295.25;5052881;28;20029;-75
2021/11/17 04:51:16;;;;;;;9.60;5.20;;;;;;;9.73;62.17;100388.78;5051772;28;20110;-75
2021/11/17 04:53:50;;;;;;;8.70;4.65;;;;;;;9.72;62.13;100381.84;5052982;28;20025;-75
2021/11/17 04:56:43;;;;;;;8.70;5.80;;;;;;;9.72;61.92;100383.66;5052746;28;20029;-75
2021/11/17 04:59:30;;;;;;;10.43;5.70;;;;;;;9.73;61.81;100382.69;5051568;28;20033;-76
2021/11/17 05:02:14;;;;;;;9.13;5.07;;;;;;;9.59;62.08;100372.66;5052389;28;20033;-75
2021/11/17 05:04:59;;;;;;;9.93;5.85;;;;;;;9.75;62.12;100380.72;5051456;28;20028;-75
2021/11/17 05:07:30;;;;;;;10.13;6.22;;;;;;;9.76;62.06;100392.94;5051255;28;20032;-76
2021/11/17 05:10:46;;;;;;;10.38;6.70;;;;;;;9.77;61.94;100384.03;5052637;28;20037;-75
2021/11/17 05:13:24;;;;;;;9.25;5.68;;;;;;;9.61;61.82;100360.13;5046993;28;20033;-76
2021/11/17 05:16:20;;;;;;;9.77;5.50;;;;;;;9.83;61.82;100391.34;5034530;28;20025;-75
2021/11/17 05:18:45;;;;;;;10.90;6.50;;;;;;;9.84;61.86;100388.56;5052479;28;20567;-75
2021/11/17 05:21:16;;;;;;;11.15;5.63;;;;;;;9.86;61.95;100393.66;5052186;28;20025;-75
2021/11/17 05:24:03;;;;;;;10.35;6.32;;;;;;;9.84;61.97;100398.28;5052377;28;20036;-75
2021/11/17 05:26:35;;;;;;;12.82;7.60;;;;;;;9.82;61.61;100402.88;5051145;28;20032;-75
2021/11/17 05:29:13;;;;;;;18.63;12.05;;;;;;;9.73;61.91;100401.97;5052121;28;20028;-75
2021/11/17 05:32:00;;;;;;;18.73;11.55;;;;;;;9.70;62.11;100404.09;5052182;28;20078;-75
2021/11/17 05:34:53;;;;;;;18.70;13.38;;;;;;;9.36;62.21;100361.72;5051823;28;20552;-75
2021/11/17 05:37:43;;;;;;;17.38;12.20;;;;;;;9.68;62.74;100406.03;5036621;28;20468;-76
2021/11/17 05:40:21;;;;;;;17.67;10.63;;;;;;;9.66;62.40;100400.94;5050751;28;20025;-75
2021/11/17 05:43:05;;;;;;;25.73;16.20;;;;;;;9.68;62.58;100403.41;5050678;28;20476;-75
2021/11/17 05:45:37;;;;;;;22.00;14.02;;;;;;;9.69;62.37;100405.91;5033854;28;20112;-75
2021/11/17 05:48:23;;;;;;;33.15;21.20;;;;;;;9.67;62.68;100409.66;5051740;28;20501;-75
2021/11/17 05:51:07;;;;;;;34.75;22.65;;;;;;;9.67;62.46;100404.38;5051810;28;20029;-75
2021/11/17 05:53:45;;;;;;;29.83;20.85;;;;;;;9.65;62.96;100407.16;5051738;28;20036;-75
2021/11/17 05:56:19;;;;;;;31.50;21.63;;;;;;;9.69;62.82;100412.97;5051481;28;20086;-75
2021/11/17 05:58:48;;;;;;;32.60;21.83;;;;;;;9.70;62.74;100414.63;5051508;28;20033;-75
2021/11/17 06:01:35;;;;;;;32.15;21.45;;;;;;;9.68;62.87;100420.06;5051617;28;20115;-75
2021/11/17 06:04:02;;;;;;;38.75;24.65;;;;;;;9.68;63.27;100420.06;5050364;28;20029;-75
2021/11/17 06:06:27;;;;;;;39.08;24.27;;;;;;;9.70;63.35;100417.28;5051518;28;20024;-75
2021/11/17 06:08:55;;;;;;;36.22;21.90;;;;;;;9.67;63.21;100417.56;5051369;28;20029;-75
2021/11/17 06:11:30;;;;;;;54.95;33.80;;;;;;;9.55;63.11;100404.59;5051503;28;20036;-75
2021/11/17 06:13:58;;;;;;;58.33;36.80;;;;;;;9.57;63.36;100425.53;5051424;28;20021;-75
2021/11/17 06:16:23;;;;;;;55.08;35.42;;;;;;;9.14;63.44;100357.72;5051024;28;20020;-75
2021/11/17 06:18:49;;;;;;;46.72;28.77;;;;;;;9.46;63.43;100407.28;5051231;28;20086;-75
2021/11/17 06:21:16;;;;;;;42.72;28.67;;;;;;;9.57;63.61;100430.78;5051302;28;20037;-75
2021/11/17 06:23:52;;;;;;;39.28;27.70;;;;;;;9.23;63.50;100373.47;5051123;28;20028;-75
2021/11/17 06:26:31;;;;;;;38.28;24.13;;;;;;;9.59;63.80;100435.91;5051155;28;20028;-75
2021/11/17 06:29:02;;;;;;;32.28;22.90;;;;;;;9.62;63.33;100440.91;5051157;28;20029;-75
2021/11/17 06:31:28;;;;;;;32.33;19.83;;;;;;;9.61;63.28;100433.97;5050842;28;20024;-75
2021/11/17 06:33:53;;;;;;;36.88;23.58;;;;;;;9.62;63.48;100423.25;5048695;28;20512;-75
2021/11/17 06:36:19;;;;;;;36.67;24.80;;;;;;;9.35;63.31;100383.78;5030565;28;20136;-75
2021/11/17 06:38:45;;;;;;;28.45;21.58;;;;;;;9.69;63.52;100429.63;5029927;28;20183;-75
2021/11/17 06:41:12;;;;;;;31.50;20.92;;;;;;;9.59;63.28;100399.84;5033335;28;20032;-75
2021/11/17 06:43:38;;;;;;;31.60;22.98;;;;;;;9.77;63.44;100423.59;5035642;28;20029;-75
2021/11/17 06:46:03;;;;;;;31.02;20.90;;;;;;;9.57;63.36;100401.78;5032543;28;20025;-76
2021/11/17 06:48:30;;;;;;;33.75;22.70;;;;;;;9.41;62.99;100360.28;5040651;28;20033;-75
2021/11/17 06:50:57;;;;;;;29.20;19.75;;;;;;;9.86;63.24;100430.59;5041792;28;20025;-75
2021/11/17 06:53:26;;;;;;;27.80;17.52;;;;;;;9.04;62.64;100293.75;5029953;28;20507;-75
2021/11/17 06:55:53;;;;;;;24.77;17.13;;;;;;;9.87;63.05;100422.53;5034878;28;20455;-76
2021/11/17 06:58:19;;;;;;;26.00;16.58;;;;;;;9.89;63.10;100422.38;5031195;28;20116;-75
2021/11/17 07:00:47;;;;;;;24.08;14.82;;;;;;;9.86;62.76;100412.97;5045542;28;20094;-75
2021/11/17 07:03:13;;;;;;;22.25;14.55;;;;;;;9.86;62.82;100412.97;5042776;28;20025;-75
2021/11/17 07:05:39;;;;;;;22.10;13.93;;;;;;;9.88;62.68;100415.44;5030911;28;20067;-75
2021/11/17 07:08:05;;;;;;;19.58;14.32;;;;;;;9.86;62.53;100399.78;5040524;28;20075;-75
2021/11/17 07:10:33;;;;;;;22.95;14.20;;;;;;;9.49;62.31;100344.56;5050660;28;20405;-75
2021/11/17 07:12:59;;;;;;;22.20;12.93;;;;;;;9.99;62.49;100411.75;5050401;28;20410;-76
2021/11/17 07:15:27;;;;;;;18.75;12.18;;;;;;;9.81;62.12;100372.19;5050479;28;20025;-75
2021/11/17 07:17:53;;;;;;;21.60;12.73;;;;;;;10.11;62.24;100406.06;5050470;28;20057;-75
2021/11/17 07:20:18;;;;;;;16.40;11.07;;;;;;;9.92;61.27;100374.59;5032710;28;20110;-76
2021/11/17 07:22:45;;;;;;;19.83;11.60;;;;;;;9.98;61.30;100383.72;5044727;28;20033;-75
2021/11/17 07:25:14;;;;;;;15.75;9.30;;;;;;;10.15;61.11;100407.41;5054268;28;20029;-75
2021/11/17 07:27:40;;;;;;;18.75;10.63;;;;;;;10.09;61.06;100397.47;5052976;28;20025;-75
2021/11/17 07:30:09;;;;;;;25.48;14.88;;;;;;;10.22;61.16;100414.75;5054064;28;20052;-75
2021/11/17 07:32:35;;;;;;;21.77;11.55;;;;;;;9.76;60.54;100346.28;5053212;28;20021;-75
2021/11/17 07:35:00;;;;;;;18.75;11.02;;;;;;;10.24;60.44;100418.06;5041239;28;20433;-75
2021/11/17 07:37:26;;;;;;;20.23;11.82;;;;;;;9.70;60.75;100320.53;5051917;28;20032;-75
2021/11/17 07:39:52;;;;;;;20.40;11.60;;;;;;;10.15;60.17;100388.94;5046779;28;20040;-75
2021/11/17 07:42:17;;;;;;;15.90;8.82;;;;;;;10.20;60.36;100385.88;5054016;28;20435;-75
2021/11/17 07:44:43;;;;;;;14.95;8.40;;;;;;;9.99;60.16;100358.97;5054329;28;20104;-75
2021/11/17 07:47:09;;;;;;;10.70;6.47;;;;;;;10.33;59.72;100409.22;5046181;28;20025;-75
2021/11/17 07:49:35;;;;;;;11.77;5.90;;;;;;;10.19;60.07;100382.38;5037000;28;20029;-75
2021/11/17 07:52:01;;;;;;;13.60;5.22;;;;;;;10.29;59.42;100403.41;5047872;28;20520;-75
2021/11/17 07:54:27;;;;;;;9.50;3.83;;;;;;;10.04;59.75;100359.34;5052098;28;20041;-75
2021/11/17 07:56:53;;;;;;;6.53;4.03;;;;;;;10.12;59.39;100359.41;5049835;28;20025;-76
2021/11/17 07:59:22;;;;;;;10.15;4.32;;;;;;;10.26;59.13;100373.88;5040121;28;20036;-75
2021/11/17 08:01:50;;;;;;;8.95;4.20;;;;;;;10.13;59.38;100350.50;5053522;28;20032;-75
2021/11/17 08:04:17;;;;;;;8.88;3.83;;;;;;;10.49;58.99;100410.16;5035581;28;20017;-75
2021/11/17 08:06:44;;;;;;;9.80;5.65;;;;;;;10.17;58.76;100365.88;5051316;28;20047;-75
2021/11/17 08:09:11;;;;;;;7.63;5.07;;;;;;;10.46;58.43;100407.00;5039636;28;20108;-75
2021/11/17 08:11:39;;;;;;;13.43;6.28;;;;;;;10.44;58.77;100415.09;5041943;28;20029;-75
2021/11/17 08:14:04;;;;;;;8.40;5.38;;;;;;;10.21;59.16;100378.78;5045738;28;20024;-75
2021/11/17 08:16:30;;;;;;;6.05;4.20;;;;;;;10.44;58.98;100416.91;5032845;28;20026;-76
2021/11/17 08:18:56;;;;;;;10.32;4.82;;;;;;;10.04;58.59;100354.06;5033188;28;20036;-75
2021/11/17 08:21:21;;;;;;;14.68;6.90;;;;;;;9.94;58.73;100343.63;5031821;28;20025;-75
2021/11/17 08:23:47;;;;;;;13.50;7.35;;;;;;;10.32;58.81;100402.28;5037256;28;20031;-75
2021/11/17 08:26:15;;;;;;;11.75;7.38;;;;;;;10.38;59.00;100404.28;5042372;28;20037;-76
2021/11/17 08:28:41;;;;;;;14.25;10.02;;;;;;;9.95;59.10;100336.53;5047264;28;20030;-76
2021/11/17 08:31:08;;;;;;;13.38;7.22;;;;;;;10.43;58.66;100410.78;5041367;28;20032;-75
2021/11/17 08:33:34;;;;;;;11.45;6.20;;;;;;;10.27;59.03;100376.34;5050784;28;20041;-75
2021/11/17 08:36:02;;;;;;;8.95;5.75;;;;;;;10.37;59.22;100378.88;5042453;28;20037;-76
2021/11/17 08:38:29;;;;;;;13.50;6.43;;;;;;;10.54;58.70;100409.69;5063191;28;20025;-76
2021/11/17 08:40:58;;;;;;;8.70;5.22;;;;;;;10.53;58.31;100409.84;5052496;28;20486;-75
2021/11/17 08:43:25;;;;;;;10.25;5.85;;;;;;;10.24;58.27;100355.56;5053198;28;20493;-76
2021/11/17 08:45:51;;;;;;;15.05;7.30;;;;;;;10.53;58.27;100405.41;5048124;28;20032;-76
2021/11/17 08:48:19;;;;;;;13.10;7.10;;;;;;;10.56;58.39;100401.63;5065682;28;20033;-75
2021/11/17 08:50:45;;;;;;;13.68;7.90;;;;;;;10.52;58.62;100403.75;5054469;28;20036;-75
2021/11/17 08:53:12;;;;;;;18.25;8.02;;;;;;;8.13;58.42;100008.69;5036898;28;20083;-75
2021/11/17 08:55:42;;;;;;;12.63;6.40;;;;;;;10.36;57.93;100356.94;5046655;28;20025;-76
2021/11/17 08:58:08;;;;;;;15.85;6.95;;;;;;;10.61;58.23;100389.59;5035268;28;20025;-75
2021/11/17 09:00:34;;;;;;;14.05;7.35;;;;;;;10.67;58.36;100396.91;5030790;28;20028;-76
2021/11/17 09:03:02;;;;;;;16.00;7.93;;;;;;;10.85;58.13;100410.03;5043835;28;20029;-75
2021/11/17 09:05:33;;;;;;;14.70;7.30;;;;;;;10.86;58.25;100416.13;5046819;28;20410;-75
2021/11/17 09:07:59;;;;;;;18.13;7.53;;;;;;;10.53;57.77;100362.34;5040064;28;20033;-76
2021/11/17 09:10:31;;;;;;;15.10;6.85;;;;;;;10.64;58.11;100376.09;5047327;28;20024;-75
2021/11/17 09:12:56;;;;;;;15.98;7.60;;;;;;;10.69;57.63;100383.53;5030697;28;20488;-75
2021/11/17 09:15:27;;;;;;;15.68;7.65;;;;;;;10.89;57.49;100406.06;5034479;28;20116;-76
2021/11/17 09:17:53;;;;;;;13.85;7.88;;;;;;;10.88;57.99;100401.78;5046996;28;20590;-75
2021/11/17 09:20:20;;;;;;;17.05;9.50;;;;;;;10.74;57.80;100395.28;5041971;28;20032;-76
2021/11/17 09:22:47;;;;;;;18.00;9.52;;;;;;;10.86;57.65;100393.19;5050768;28;20028;-76
2021/11/17 09:25:14;;;;;;;39.03;17.85;;;;;;;10.52;57.77;100347.47;5049496;28;20109;-81
2021/11/17 09:27:40;;;;;;;50.17;23.10;;;;;;;10.92;57.33;100391.72;5037284;28;20029;-81
2021/11/17 09:30:10;;;;;;;87.70;37.50;;;;;;;10.63;57.38;100347.19;5060925;28;20413;-81
2021/11/17 09:32:36;;;;;;;37.15;17.67;;;;;;;10.57;57.11;100345.19;5061488;28;20410;-80
2021/11/17 09:35:05;;;;;;;29.67;12.95;;;;;;;10.97;57.33;100392.91;5038115;28;20099;-82
2021/11/17 09:37:32;;;;;;;20.85;9.65;;;;;;;10.62;56.86;100348.19;5033037;28;20029;-81
2021/11/17 09:39:58;;;;;;;51.97;20.45;;;;;;;10.48;56.95;100320.56;5047856;28;20089;-81
2021/11/17 09:42:24;;;;;;;23.85;10.70;;;;;;;10.95;56.91;100386.13;5043342;28;20112;-80
2021/11/17 09:44:51;;;;;;;21.77;10.85;;;;;;;10.49;56.81;100309.84;5035200;28;20456;-81
2021/11/17 09:47:20;;;;;;;24.20;11.57;;;;;;;10.76;56.62;100352.84;5038197;28;20036;-80
2021/11/17 09:50:07;;;;;;;26.27;10.65;;;;;;;10.92;56.90;100378.50;5030625;28;20033;-81
2021/11/17 09:52:46;;;;;;;28.20;12.57;;;;;;;10.18;56.75;100259.31;5045449;28;20115;-81
2021/11/17 09:55:23;;;;;;;40.00;18.27;;;;;;;10.95;56.57;100378.19;5044629;28;20454;-81
2021/11/17 09:58:01;;;;;;;26.33;12.50;;;;;;;10.88;57.22;100361.31;5032500;28;20036;-81
2021/11/17 10:00:36;;;;;;;34.83;17.48;;;;;;;10.93;57.10;100375.69;5052888;28;20515;-80
2021/11/17 10:03:09;;;;;;;29.13;18.48;;;;;;;10.95;57.34;100372.91;5070792;28;20055;-81
2021/11/17 10:15:13;;;;;;;25.38;14.30;;;;;;;10.94;56.87;100358.03;5033964;28;20064;-81
2021/11/17 10:17:42;;;;;;;17.58;9.82;;;;;;;10.94;56.96;100356.22;5031245;28;20079;-81
2021/11/17 10:20:08;;;;;;;15.07;7.93;;;;;;;10.98;57.10;100356.72;5031128;28;20044;-80
2021/11/17 10:22:34;;;;;;;13.63;8.27;;;;;;;11.01;56.75;100349.31;5030769;28;20494;-80
2021/11/17 10:25:10;;;;;;;28.75;9.05;;;;;;;11.05;56.79;100353.28;5029819;28;20029;-76
2021/11/17 10:27:47;;;;;;;16.63;9.07;;;;;;;10.99;56.95;100332.78;5031003;28;20025;-76
2021/11/17 10:30:26;;;;;;;14.25;8.77;;;;;;;11.07;56.57;100342.53;5029689;28;20029;-75
2021/11/17 10:33:13;;;;;;;14.55;8.80;;;;;;;11.03;56.54;100341.22;5030654;28;20057;-76
2021/11/17 10:35:53;;;;;;;14.65;9.13;;;;;;;10.74;56.59;100289.63;5030557;28;20411;-75
2021/11/17 10:38:23;;;;;;;15.63;9.80;;;;;;;11.06;56.57;100336.44;5030480;28;20033;-75
2021/11/17 10:40:53;;;;;;;13.00;7.47;;;;;;;11.05;56.96;100331.31;5030885;28;20108;-76
2021/11/17 10:43:48;;;;;;;11.85;5.63;;;;;;;11.04;56.19;100329.66;5030770;28;20517;-76
2021/11/17 10:46:20;;;;;;;12.75;7.72;;;;;;;11.00;57.13;100317.75;5030834;28;20041;-76
2021/11/17 10:49:05;;;;;;;9.68;6.47;;;;;;;11.05;56.70;100321.56;5046404;28;20040;-75
2021/11/17 10:51:35;;;;;;;16.00;9.30;;;;;;;11.07;56.86;100334.63;5070919;28;20033;-76
2021/11/17 10:54:07;;;;;;;11.50;7.00;;;;;;;11.09;57.08;100322.91;5058015;28;20044;-76
2021/11/17 10:56:33;;;;;;;11.48;6.80;;;;;;;11.09;56.57;100327.34;5043102;28;20037;-76
2021/11/17 10:59:01;;;;;;;16.00;7.90;;;;;;;11.07;56.82;100305.56;5033665;28;20030;-76
2021/11/17 11:01:37;;;;;;;21.85;13.20;;;;;;;11.19;56.62;100325.44;5043451;28;20060;-76
2021/11/17 11:04:22;;;;;;;15.70;9.60;;;;;;;10.94;56.00;100270.84;5053759;28;20031;-76
2021/11/17 11:07:20;;;;;;;12.18;5.85;;;;;;;11.22;56.21;100314.53;5039113;28;20021;-76
2021/11/17 11:10:16;;;;;;;10.52;5.38;;;;;;;11.19;55.70;100306.91;5048973;28;20433;-76
2021/11/17 11:12:44;;;;;;;11.15;6.55;;;;;;;11.05;56.53;100297.78;5040896;28;20034;-76
2021/11/17 11:15:17;;;;;;;15.38;7.47;;;;;;;11.24;55.79;100309.06;5033099;28;20037;-76
2021/11/17 11:18:04;;;;;;;11.90;5.93;;;;;;;11.28;56.23;100307.75;5043992;28;20021;-76
2021/11/17 11:20:34;;;;;;;11.88;5.95;;;;;;;11.22;56.19;100295.19;5035566;28;20502;-76
2021/11/17 11:23:05;;;;;;;10.80;6.13;;;;;;;11.34;56.03;100307.09;5037499;28;20031;-76
2021/11/17 11:25:58;;;;;;;16.40;10.93;;;;;;;11.18;55.96;100284.13;5032764;28;20036;-82
2021/11/17 11:28:32;;;;;;;9.73;7.65;;;;;;;11.29;56.00;100301.47;5034515;28;20045;-81
2021/11/17 11:31:01;;;;;;;14.25;8.45;;;;;;;11.32;56.21;100298.50;5042053;28;20176;-80
2021/11/17 11:33:48;;;;;;;10.43;6.15;;;;;;;11.33;56.17;100295.69;5049579;28;20540;-79
2021/11/17 11:36:13;;;;;;;18.73;13.15;;;;;;;11.32;55.48;100288.75;5053658;28;20049;-80
2021/11/17 11:38:47;;;;;;;12.43;7.93;;;;;;;11.32;55.81;100287.94;5043697;28;20494;-80
2021/11/17 11:42:06;;;;;;;7.75;5.78;;;;;;;11.31;55.84;100296.84;5043679;28;20404;-79
2021/11/17 11:44:38;;;;;;;20.45;12.75;;;;;;;11.34;56.12;100285.94;5030996;28;20106;-79
2021/11/17 11:47:03;;;;;;;;;;;;;;;11.27;55.86;100292.88;5046306;28;20025;-79
2021/11/17 11:49:38;;;;;;;10.40;6.07;;;;;;;11.35;56.02;100284.97;5033757;28;20001;-79
2021/11/17 11:52:20;;;;;;;9.95;6.20;;;;;;;11.36;56.04;100290.09;5034039;28;20068;-79
2021/11/17 11:54:51;;;;;;;7.95;4.72;;;;;;;11.36;56.35;100290.09;5034055;28;20029;-80
2021/11/17 11:57:37;;;;;;;7.45;4.97;;;;;;;11.33;55.93;100287.75;5035966;28;20036;-80
2021/11/17 12:00:03;;;;;;;10.35;5.20;;;;;;;11.34;55.97;100292.06;5047385;28;20520;-79
2021/11/17 12:02:35;;;;;;;8.18;5.63;;;;;;;11.34;56.11;100292.06;5035180;28;20025;-79
2021/11/17 12:05:03;;;;;;;11.73;6.45;;;;;;;11.34;56.35;100291.25;5043205;28;20466;-80
2021/11/17 12:08:03;;;;;;;16.95;10.32;;;;;;;11.34;56.50;100291.25;5043071;28;20037;-79
2021/11/17 12:10:33;;;;;;;7.88;5.07;;;;;;;11.12;56.27;100248.56;5034373;28;20087;-80
2021/11/17 12:13:21;;;;;;;8.02;5.68;;;;;;;11.10;56.51;100252.38;5037365;28;20033;-79
2021/11/17 12:16:10;;;;;;;5.63;4.65;;;;;;;11.28;56.66;100284.78;5040534;28;20561;-80
2021/11/17 12:18:58;;;;;;;7.97;4.78;;;;;;;11.24;56.30;100278.19;5056203;28;20036;-80
2021/11/17 12:21:24;;;;;;;7.53;5.10;;;;;;;11.21;56.90;100286.44;5043630;28;20056;-80
2021/11/17 12:24:23;;;;;;;8.82;5.13;;;;;;;11.23;56.54;100297.69;5045226;28;20465;-79
2021/11/17 12:27:13;;;;;;;9.00;5.15;;;;;;;11.18;56.35;100284.13;5033271;28;20029;-80
2021/11/17 12:29:59;;;;;;;9.18;4.38;;;;;;;11.19;56.70;100284.94;5043642;28;20505;-80
2021/11/17 12:32:48;;;;;;;9.50;6.22;;;;;;;11.21;57.01;100285.63;5039612;28;20123;-80
2021/11/17 12:35:30;;;;;;;16.85;11.70;;;;;;;11.13;57.09;100267.91;5038221;28;20105;-80
2021/11/17 12:38:05;;;;;;;14.25;8.95;;;;;;;10.98;56.95;100243.09;5031671;28;20030;-80
2021/11/17 12:40:59;;;;;;;18.40;11.38;;;;;;;10.75;56.89;100203.28;5031746;28;20037;-81
2021/11/17 12:43:30;;;;;;;16.33;8.20;;;;;;;10.96;56.86;100250.38;5032669;28;20224;-80
2021/11/17 12:46:21;;;;;;;15.82;9.23;;;;;;;11.22;56.80;100285.44;5032800;28;20025;-81
2021/11/17 12:49:18;;;;;;;9.32;6.32;;;;;;;11.14;56.12;100278.31;5035531;28;20573;-80
2021/11/17 12:51:55;;;;;;;9.25;5.63;;;;;;;11.17;55.78;100285.13;5033260;28;20202;-80
2021/11/17 12:54:33;;;;;;;8.93;6.30;;;;;;;11.04;55.65;100272.34;5043800;28;20041;-80
2021/11/17 12:57:13;;;;;;;8.65;4.72;;;;;;;11.16;54.67;100277.34;5050761;28;20051;-80
2021/11/17 12:59:46;;;;;;;8.48;5.35;;;;;;;11.08;55.78;100270.22;5039046;28;20032;-80
2021/11/17 13:02:20;;;;;;;8.73;5.22;;;;;;;11.15;55.45;100279.16;5051722;28;20040;-80
2021/11/17 13:04:48;;;;;;;8.65;5.15;;;;;;;11.17;55.02;100281.66;5052242;28;20025;-80
2021/11/17 13:07:33;;;;;;;9.10;5.28;;;;;;;11.16;55.15;100275.53;5036332;28;20021;-80
2021/11/17 13:09:59;;;;;;;5.28;3.45;;;;;;;11.06;55.01;100256.34;5042346;28;20036;-80
2021/11/17 13:12:31;;;;;;;8.85;5.20;;;;;;;10.77;55.17;100218.00;5039200;28;20055;-79
2021/11/17 13:15:05;;;;;;;8.25;4.85;;;;;;;11.08;55.29;100264.91;5051780;28;20075;-79
2021/11/17 13:17:33;;;;;;;9.98;4.78;;;;;;;11.11;54.87;100262.78;5037473;28;20037;-80
2021/11/17 13:20:25;;;;;;;5.63;3.97;;;;;;;11.09;54.78;100256.81;5039251;28;20131;-80
2021/11/17 13:23:16;;;;;;;8.10;4.75;;;;;;;11.08;54.93;100254.34;5053929;28;20029;-80
2021/11/17 13:25:57;;;;;;;7.32;4.50;;;;;;;11.06;54.71;100249.22;5044779;28;20634;-75
2021/11/17 13:28:39;;;;;;;10.65;7.18;;;;;;;11.07;54.82;100253.53;5031127;28;20120;-75
2021/11/17 13:31:23;;;;;;;;;;;;;;;10.99;55.99;100252.69;5033826;28;20037;-75
2021/11/17 13:33:57;;;;;;;8.25;5.65;;;;;;;11.05;55.02;100257.31;5035379;28;19920;-75
2021/11/17 13:36:39;;;;;;;6.88;4.70;;;;;;;11.06;54.66;100256.34;5036244;28;20103;-76
2021/11/17 13:39:04;;;;;;;11.80;5.85;;;;;;;10.95;55.41;100243.44;5032424;28;20041;-75
2021/11/17 13:41:32;;;;;;;11.27;5.82;;;;;;;11.07;55.30;100261.44;5031806;28;20037;-75
2021/11/17 13:43:58;;;;;;;12.05;4.80;;;;;;;10.82;55.23;100228.88;5031333;28;20029;-76
2021/11/17 13:46:24;;;;;;;10.85;5.50;;;;;;;11.02;55.40;100260.28;5048404;28;20040;-76
2021/11/17 13:48:50;;;;;;;12.40;6.43;;;;;;;11.03;55.36;100259.31;5047415;28;20505;-75
2021/11/17 13:51:19;;;;;;;9.77;5.93;;;;;;;10.63;55.25;100200.13;5029725;28;20025;-75
2021/11/17 13:53:45;;;;;;;11.25;7.18;;;;;;;10.96;55.06;100247.72;5035531;28;20028;-76
2021/11/17 13:56:20;;;;;;;8.55;6.18;;;;;;;10.71;55.15;100212.53;5031541;28;20490;-76
2021/11/17 13:58:46;;;;;;;8.55;4.95;;;;;;;10.71;55.04;100207.25;5033830;28;20033;-75
2021/11/17 14:01:11;;;;;;;10.75;6.65;;;;;;;10.97;55.15;100262.59;5032594;28;20041;-76
2021/11/17 14:03:37;;;;;;;10.75;6.05;;;;;;;11.01;55.31;100263.91;5034690;28;20510;-76
2021/11/17 14:06:06;;;;;;;20.25;9.77;;;;;;;10.98;55.03;100280.94;5040626;28;20029;-76
2021/11/17 14:08:33;;;;;;;19.58;9.60;;;;;;;10.43;55.29;100186.41;5030179;28;20036;-76
2021/11/17 14:10:59;;;;;;;15.25;7.95;;;;;;;10.61;55.34;100215.31;5037521;28;20515;-76
2021/11/17 14:13:26;;;;;;;17.98;8.95;;;;;;;10.44;55.46;100190.69;5041018;28;20039;-75
2021/11/17 14:15:52;;;;;;;11.38;7.20;;;;;;;10.70;55.23;100243.41;5063384;28;20203;-76
2021/11/17 14:18:18;;;;;;;9.32;5.80;;;;;;;10.92;55.47;100270.19;5057551;28;20032;-75
2021/11/17 14:20:46;;;;;;;9.10;6.38;;;;;;;10.89;55.89;100273.16;5045127;28;20033;-76
2021/11/17 14:23:12;;;;;;;8.82;5.60;;;;;;;10.37;55.64;100187.00;5030570;28;20025;-76
2021/11/17 14:25:40;;;;;;;10.00;6.07;;;;;;;10.76;55.33;100258.59;5033324;28;20104;-75
2021/11/17 14:28:13;;;;;;;11.35;6.60;;;;;;;10.92;55.25;100273.66;5048896;28;20033;-75
2021/11/17 14:30:46;;;;;;;8.20;5.20;;;;;;;10.92;55.44;100272.81;5039330;28;20498;-76
2021/11/17 14:33:17;;;;;;;9.27;5.50;;;;;;;10.88;55.82;100267.03;5047920;28;20029;-76
2021/11/17 14:35:43;;;;;;;6.38;5.53;;;;;;;10.90;55.65;100277.44;5048424;28;20057;-76